Hammonton, NJ (08037)

11:57 AM EST on February 01, 2015 (GMT -0500)
Atlantic Blueberry Co. | Change Station
CLOSE
Current Station
Personal Weather Station
Location: Hammonton, NJ
Elevation: 46 ft
Nearby Weather Stations
Active Advisory: Winter Weather Advisory

Elev 46 ft 39.56 °N, 74.78 °W | Updated 7 seconds ago

Partly Cloudy
Partly Cloudy
36.4 °F
Feels Like 36 °F
N
0.0
Wind Variable Wind from SW
Gusts 0.0 mph

Today
High -- | Low -- °F
--% Chance of Precip.
Yesterday
High -- | Low -- °F
Precip. -- in
7:07 AM 5:18 PM
Waxing Gibbous, 95% visible
Pressure 30.24 in
Visibility 10.0 miles
Clouds Mostly Cloudy 4500 ft
Overcast 5500 ft
Windchill 36 °F
Dew Point 24 °F
Humidity 60%
Rainfall 0.00 in
Snow Depth Not available.
UV 1 out of 12
Pollen .10 out of 12
Air Quality Not available.
Flu Activity Not available.
METAR KACY 011654Z 26007KT 10SM BKN045 OVC055 03/M08 A3023 RMK AO2 SLP239 T00281083

More Conditions Fewer Conditions

Pressure 30.24 in
Visibility 10.0 miles
Clouds Mostly Cloudy 4500 ft
Overcast 5500 ft
Windchill 36 °F
Dew Point 24 °F
Humidity 60%
Rainfall 0.00 in
Snow Depth Not available.
UV 1 out of 12
Pollen .10 out of 12
Air Quality Not available.
Flu Activity Not available.
METAR KACY 011654Z 26007KT 10SM BKN045 OVC055 03/M08 A3023 RMK AO2 SLP239 T00281083

More Conditions Fewer Conditions

10-Day Weather Forecast

Almanac

Astronomy

Feb. 01, 2015 Rise Set
Actual Time
Civil Twilight
Nautical Twilight
Astronomical Twilight
Moon
Length of Visible Light
Length of Day
Tomorrow will be .
, % of the Moon is Illuminated

Today's Extremes

State Highs State Lows

Community

WunderPhotos

Upload Photos

1,792,367 photos uploaded!

WunderBlogs® & News

Nearby

Air Quality

  Air Quality AQ Index Pollutant
Not available.

Snow Depth

Station Depth Elevation

Earthquake Activity

City Distance Mag. Time & Date
Minimum magnitude displayed is 2.5.

Coastal Water Temperatures

Place Temperature

Nearby Weather Stations